Time;durP1;ratioP1;P1;durP2;ratioP2;P2;SDS_P1;SDS_P2;PMS_P1;PMS_P2;Temp;Humidity;BMP_temperature;BMP_pressure;BME280_temperature;BME280_humidity;BME280_pressure;Samples;Min_cycle;Max_cycle;Signal;HPM_P1;HPM_P2
2024/01/10 00:00:10;;;;;;;67.45;27.55;;;;;;;;;;2034566;29;20067;-57
2024/01/10 00:01:11;;;;;;;58.55;26.58;;;;;;;;;;2034498;29;20047;-57
2024/01/10 00:02:12;;;;;;;57.47;25.60;;;;;;;;;;2034465;29;20488;-57
2024/01/10 00:03:12;;;;;;;58.83;26.13;;;;;;;;;;2034541;29;20483;-57
2024/01/10 00:04:16;;;;;;;57.65;27.02;;;;;;;;;;2034278;29;20052;-57
2024/01/10 00:05:16;;;;;;;59.03;27.85;;;;;;;;;;2033981;29;20400;-57
2024/01/10 00:06:17;;;;;;;67.60;28.48;;;;;;;;;;2033605;29;20051;-58
2024/01/10 00:07:18;;;;;;;60.63;27.02;;;;;;;;;;2034365;29;20071;-57
2024/01/10 00:08:19;;;;;;;60.90;27.17;;;;;;;;;;2034563;29;20068;-58
2024/01/10 00:09:19;;;;;;;59.55;25.15;;;;;;;;;;2034530;29;20048;-57
2024/01/10 00:10:21;;;;;;;70.18;28.73;;;;;;;;;;2033550;29;20051;-57
2024/01/10 00:11:22;;;;;;;61.92;26.83;;;;;;;;;;2034426;29;20036;-57
2024/01/10 00:12:23;;;;;;;61.45;27.25;;;;;;;;;;2034294;29;20063;-61
2024/01/10 00:13:23;;;;;;;63.17;27.85;;;;;;;;;;2033765;29;20176;-57
2024/01/10 00:14:24;;;;;;;60.75;26.80;;;;;;;;;;2034521;29;20042;-57
2024/01/10 00:15:25;;;;;;;69.68;27.95;;;;;;;;;;2034374;29;20071;-57
2024/01/10 00:16:26;;;;;;;64.70;27.70;;;;;;;;;;2034108;29;20067;-57
2024/01/10 00:17:27;;;;;;;71.32;30.33;;;;;;;;;;2034092;29;20043;-58
2024/01/10 00:18:27;;;;;;;63.88;27.92;;;;;;;;;;2034452;29;20055;-57
2024/01/10 00:19:28;;;;;;;68.38;30.55;;;;;;;;;;2034488;29;20504;-57
2024/01/10 00:20:29;;;;;;;65.78;29.52;;;;;;;;;;2034405;29;20485;-58
2024/01/10 00:21:30;;;;;;;67.10;28.85;;;;;;;;;;2034131;29;20044;-57
2024/01/10 00:22:31;;;;;;;64.88;29.13;;;;;;;;;;2025547;29;20470;-57
2024/01/10 00:23:31;;;;;;;71.90;29.10;;;;;;;;;;2025121;29;20537;-57
2024/01/10 00:24:32;;;;;;;66.72;30.15;;;;;;;;;;2034575;29;20051;-57
2024/01/10 00:25:33;;;;;;;70.60;29.60;;;;;;;;;;2034477;29;20381;-58
2024/01/10 00:26:33;;;;;;;72.95;30.13;;;;;;;;;;2034341;29;20480;-57
2024/01/10 00:27:34;;;;;;;68.72;31.52;;;;;;;;;;2034839;29;20039;-57
2024/01/10 00:28:35;;;;;;;76.18;32.55;;;;;;;;;;2034472;29;20031;-57
2024/01/10 00:29:36;;;;;;;71.63;30.83;;;;;;;;;;2034160;29;20047;-57
2024/01/10 00:30:37;;;;;;;71.55;29.92;;;;;;;;;;2034301;29;20071;-57
2024/01/10 00:31:38;;;;;;;75.25;30.83;;;;;;;;;;2034074;29;20036;-57
2024/01/10 00:32:38;;;;;;;77.28;30.88;;;;;;;;;;2034117;29;20040;-57
2024/01/10 00:33:39;;;;;;;75.05;31.05;;;;;;;;;;2034267;29;20051;-57
2024/01/10 00:34:40;;;;;;;72.18;29.17;;;;;;;;;;2034180;29;20043;-57
2024/01/10 00:35:41;;;;;;;71.65;31.00;;;;;;;;;;2024956;29;20076;-57
2024/01/10 00:36:41;;;;;;;76.93;32.75;;;;;;;;;;2025787;29;20052;-57
2024/01/10 00:37:42;;;;;;;73.05;30.63;;;;;;;;;;2033938;29;20036;-57
2024/01/10 00:38:43;;;;;;;70.05;31.60;;;;;;;;;;2033831;29;20075;-57
2024/01/10 00:39:44;;;;;;;75.93;32.42;;;;;;;;;;2033882;29;20052;-57
2024/01/10 00:40:44;;;;;;;71.90;31.40;;;;;;;;;;2034100;29;20036;-56
2024/01/10 00:41:45;;;;;;;73.07;32.45;;;;;;;;;;2034318;29;20442;-57
2024/01/10 00:42:47;;;;;;;78.55;31.77;;;;;;;;;;2033300;29;20052;-57
2024/01/10 00:43:47;;;;;;;68.78;31.15;;;;;;;;;;2034188;29;20040;-57
2024/01/10 00:44:48;;;;;;;70.88;29.33;;;;;;;;;;2034260;29;20509;-57
2024/01/10 00:45:49;;;;;;;69.60;30.65;;;;;;;;;;2034060;29;20099;-57
2024/01/10 00:46:50;;;;;;;77.00;32.03;;;;;;;;;;2034260;29;20039;-57
2024/01/10 00:47:51;;;;;;;75.70;31.40;;;;;;;;;;2033813;29;20063;-57
2024/01/10 00:48:51;;;;;;;69.25;32.00;;;;;;;;;;2034193;29;20044;-57
2024/01/10 00:49:52;;;;;;;77.50;31.95;;;;;;;;;;2034239;29;20488;-57
2024/01/10 00:50:53;;;;;;;72.15;31.60;;;;;;;;;;2033504;29;20048;-57
2024/01/10 00:51:54;;;;;;;67.72;30.20;;;;;;;;;;2033738;29;20040;-57
2024/01/10 00:52:55;;;;;;;71.50;30.70;;;;;;;;;;2033573;29;20124;-57
2024/01/10 00:53:55;;;;;;;74.88;30.73;;;;;;;;;;2033650;29;20043;-57
2024/01/10 00:54:56;;;;;;;76.35;31.35;;;;;;;;;;2033812;29;20039;-57
2024/01/10 00:55:57;;;;;;;65.57;31.60;;;;;;;;;;2033606;29;20043;-57
2024/01/10 00:56:58;;;;;;;71.13;30.52;;;;;;;;;;2033782;29;20461;-57
2024/01/10 00:57:58;;;;;;;69.57;30.15;;;;;;;;;;2033868;29;20059;-57
2024/01/10 00:58:59;;;;;;;67.78;30.55;;;;;;;;;;2033778;29;20135;-57
2024/01/10 01:00:00;;;;;;;69.00;30.65;;;;;;;;;;2033826;29;20059;-57
2024/01/10 01:01:00;;;;;;;69.50;30.80;;;;;;;;;;2033972;29;20032;-57
2024/01/10 01:02:01;;;;;;;74.70;32.45;;;;;;;;;;2034068;29;20067;-56
2024/01/10 01:03:02;;;;;;;71.65;30.52;;;;;;;;;;2033761;29;20044;-57
2024/01/10 01:04:03;;;;;;;74.35;30.13;;;;;;;;;;2033936;29;20040;-57
2024/01/10 01:05:04;;;;;;;70.25;29.23;;;;;;;;;;2034207;29;20389;-57
2024/01/10 01:06:04;;;;;;;69.82;32.13;;;;;;;;;;2032725;29;20048;-57
2024/01/10 01:07:05;;;;;;;70.95;29.63;;;;;;;;;;2033709;29;20083;-56
2024/01/10 01:08:06;;;;;;;70.10;30.45;;;;;;;;;;2034033;29;20079;-57
2024/01/10 01:09:07;;;;;;;71.75;29.98;;;;;;;;;;2034017;29;20032;-57
2024/01/10 01:10:08;;;;;;;70.05;29.55;;;;;;;;;;2034023;29;20369;-57
2024/01/10 01:11:09;;;;;;;69.78;30.80;;;;;;;;;;2033819;29;20044;-57
2024/01/10 01:12:10;;;;;;;70.57;31.00;;;;;;;;;;2024994;29;20060;-57
2024/01/10 01:13:11;;;;;;;71.78;30.15;;;;;;;;;;2025727;29;20043;-57
2024/01/10 01:14:12;;;;;;;65.22;28.92;;;;;;;;;;2033748;29;20075;-56
2024/01/10 01:15:12;;;;;;;66.50;30.17;;;;;;;;;;2034112;29;20040;-58
2024/01/10 01:16:13;;;;;;;70.93;30.83;;;;;;;;;;2033886;29;20108;-57
2024/01/10 01:17:14;;;;;;;69.25;30.35;;;;;;;;;;2033624;29;20099;-57
2024/01/10 01:18:14;;;;;;;72.13;31.92;;;;;;;;;;2033949;29;20135;-57
2024/01/10 01:19:15;;;;;;;77.55;30.80;;;;;;;;;;2033927;29;20052;-57
2024/01/10 01:20:16;;;;;;;70.00;31.63;;;;;;;;;;2033287;29;20044;-61
2024/01/10 01:21:17;;;;;;;73.93;30.73;;;;;;;;;;2033955;29;20043;-57
2024/01/10 01:22:17;;;;;;;64.57;30.02;;;;;;;;;;2025146;29;20473;-57
2024/01/10 01:23:19;;;;;;;68.80;29.52;;;;;;;;;;2025623;29;20408;-57
2024/01/10 01:24:19;;;;;;;67.72;30.33;;;;;;;;;;2033638;29;20078;-57
2024/01/10 01:25:20;;;;;;;73.18;30.77;;;;;;;;;;2033832;29;20043;-57
2024/01/10 01:26:21;;;;;;;69.97;29.55;;;;;;;;;;2024815;29;20044;-57
2024/01/10 01:27:21;;;;;;;67.70;28.65;;;;;;;;;;2025401;29;20413;-57
2024/01/10 01:28:22;;;;;;;66.03;28.33;;;;;;;;;;2033969;29;20464;-57
2024/01/10 01:29:23;;;;;;;64.80;28.08;;;;;;;;;;2025536;29;20028;-58
2024/01/10 01:30:24;;;;;;;65.38;28.17;;;;;;;;;;2025104;29;20048;-57
2024/01/10 01:31:25;;;;;;;68.68;29.45;;;;;;;;;;2033723;29;20126;-57
2024/01/10 01:32:25;;;;;;;66.75;28.48;;;;;;;;;;2034224;29;20039;-57
2024/01/10 01:33:26;;;;;;;62.08;29.48;;;;;;;;;;2033803;29;20055;-57
2024/01/10 01:34:27;;;;;;;72.03;29.83;;;;;;;;;;2033827;29;20070;-57
2024/01/10 01:35:28;;;;;;;68.13;30.83;;;;;;;;;;2033698;29;20032;-57
2024/01/10 01:36:28;;;;;;;71.80;30.77;;;;;;;;;;2032819;29;20055;-57
2024/01/10 01:37:29;;;;;;;73.93;28.70;;;;;;;;;;2033717;29;20425;-58
2024/01/10 01:38:30;;;;;;;71.75;30.30;;;;;;;;;;2033908;29;20504;-57
2024/01/10 01:39:31;;;;;;;71.97;31.15;;;;;;;;;;2033869;29;20028;-57
2024/01/10 01:40:31;;;;;;;70.82;29.83;;;;;;;;;;2033318;29;20396;-57
2024/01/10 01:41:32;;;;;;;74.25;31.65;;;;;;;;;;2033782;29;20028;-57
2024/01/10 01:42:33;;;;;;;67.22;31.38;;;;;;;;;;2033366;29;20047;-57
2024/01/10 01:43:35;;;;;;;70.82;30.27;;;;;;;;;;2034002;29;20036;-57
2024/01/10 01:44:35;;;;;;;70.35;29.95;;;;;;;;;;2034094;29;20087;-58
2024/01/10 01:45:36;;;;;;;69.00;28.63;;;;;;;;;;2033528;29;20501;-57
2024/01/10 01:46:37;;;;;;;63.80;29.88;;;;;;;;;;2034040;29;20520;-57
2024/01/10 01:47:38;;;;;;;63.67;28.20;;;;;;;;;;2032911;29;20048;-57
2024/01/10 01:48:39;;;;;;;64.55;29.48;;;;;;;;;;2033716;29;20040;-57
2024/01/10 01:49:42;;;;;;;69.32;29.50;;;;;;;;;;2034528;29;20071;-57
2024/01/10 01:50:43;;;;;;;69.90;28.90;;;;;;;;;;2035498;29;20040;-57
2024/01/10 01:51:44;;;;;;;72.53;31.00;;;;;;;;;;2027301;29;20366;-58
2024/01/10 01:52:45;;;;;;;68.10;29.00;;;;;;;;;;2027059;29;20052;-57
2024/01/10 01:53:46;;;;;;;72.05;30.48;;;;;;;;;;2035328;29;20040;-57
2024/01/10 01:54:47;;;;;;;67.00;30.33;;;;;;;;;;2035484;29;20468;-57
2024/01/10 01:55:47;;;;;;;70.85;30.20;;;;;;;;;;2035115;29;20072;-56
2024/01/10 01:56:48;;;;;;;69.53;29.42;;;;;;;;;;2026757;29;20053;-57
2024/01/10 01:57:49;;;;;;;69.63;29.98;;;;;;;;;;2027156;29;20096;-57
2024/01/10 01:58:50;;;;;;;67.78;30.48;;;;;;;;;;2035338;29;20036;-56
2024/01/10 01:59:50;;;;;;;72.25;30.67;;;;;;;;;;2035443;29;20040;-57
2024/01/10 02:00:51;;;;;;;74.50;31.70;;;;;;;;;;2035435;29;20393;-57
2024/01/10 02:01:52;;;;;;;70.20;30.80;;;;;;;;;;2026989;29;20476;-57
2024/01/10 02:02:53;;;;;;;69.80;29.02;;;;;;;;;;2027182;29;20037;-57
2024/01/10 02:03:55;;;;;;;70.70;30.33;;;;;;;;;;2026932;29;20037;-57
2024/01/10 02:04:55;;;;;;;69.88;31.85;;;;;;;;;;2027065;29;20045;-57
2024/01/10 02:05:56;;;;;;;73.32;31.33;;;;;;;;;;2035403;29;20126;-57
2024/01/10 02:06:57;;;;;;;71.78;30.33;;;;;;;;;;2034789;29;20052;-57
2024/01/10 02:07:58;;;;;;;67.70;30.30;;;;;;;;;;2027003;29;20080;-57
2024/01/10 02:08:58;;;;;;;70.70;31.75;;;;;;;;;;2026861;29;20036;-57
2024/01/10 02:09:59;;;;;;;65.47;29.77;;;;;;;;;;2034866;29;20058;-57
2024/01/10 02:11:00;;;;;;;71.68;31.63;;;;;;;;;;2035257;29;20079;-57
2024/01/10 02:12:01;;;;;;;67.93;30.02;;;;;;;;;;2035165;29;20044;-58
2024/01/10 02:13:02;;;;;;;66.20;27.92;;;;;;;;;;2034989;29;20044;-57
2024/01/10 02:14:02;;;;;;;67.70;30.02;;;;;;;;;;2035136;29;20143;-57
2024/01/10 02:15:03;;;;;;;71.07;29.23;;;;;;;;;;2035352;29;20087;-58
2024/01/10 02:16:04;;;;;;;60.88;29.20;;;;;;;;;;2026964;29;20044;-57
2024/01/10 02:17:05;;;;;;;60.58;25.88;;;;;;;;;;2026938;29;20108;-57
2024/01/10 02:18:06;;;;;;;64.10;28.52;;;;;;;;;;2026957;29;20516;-57
2024/01/10 02:19:19;;;;;;;57.13;28.15;;;;;;;;;;2026972;29;20029;-57
2024/01/10 02:20:23;;;;;;;62.00;26.58;;;;;;;;;;2035671;29;20047;-57
2024/01/10 02:21:23;;;;;;;60.33;27.05;;;;;;;;;;2035004;29;20047;-57
2024/01/10 02:22:24;;;;;;;65.15;28.40;;;;;;;;;;2026764;29;20039;-57
2024/01/10 02:23:25;;;;;;;63.83;27.63;;;;;;;;;;2027405;29;20049;-57
2024/01/10 02:24:26;;;;;;;63.03;27.35;;;;;;;;;;2034617;29;20048;-57
2024/01/10 02:25:26;;;;;;;67.38;27.52;;;;;;;;;;2035264;29;20040;-64
2024/01/10 02:26:27;;;;;;;65.55;28.10;;;;;;;;;;2034803;29;20044;-57
2024/01/10 02:27:28;;;;;;;63.72;27.40;;;;;;;;;;2026950;29;20064;-57
2024/01/10 02:28:29;;;;;;;66.63;26.92;;;;;;;;;;2019319;29;20470;-57
2024/01/10 02:29:30;;;;;;;71.82;29.92;;;;;;;;;;2026725;29;20032;-57
2024/01/10 02:30:30;;;;;;;63.40;26.38;;;;;;;;;;2035210;29;20036;-57
2024/01/10 02:31:31;;;;;;;65.47;28.05;;;;;;;;;;2035361;29;20414;-57
2024/01/10 02:32:32;;;;;;;67.72;26.48;;;;;;;;;;2035065;29;20079;-56
2024/01/10 02:33:33;;;;;;;71.13;29.08;;;;;;;;;;2035132;29;20444;-57
2024/01/10 02:34:33;;;;;;;71.38;27.35;;;;;;;;;;2034712;29;20040;-56
2024/01/10 02:35:34;;;;;;;70.07;28.48;;;;;;;;;;2034867;29;20524;-57
2024/01/10 02:36:35;;;;;;;64.07;26.10;;;;;;;;;;2035234;29;20087;-57
2024/01/10 02:37:36;;;;;;;63.85;25.83;;;;;;;;;;2035087;29;20389;-57
2024/01/10 02:38:36;;;;;;;69.95;28.30;;;;;;;;;;2035157;29;20545;-57
2024/01/10 02:39:37;;;;;;;72.65;27.77;;;;;;;;;;2035050;29;20484;-57
2024/01/10 02:40:38;;;;;;;63.83;24.20;;;;;;;;;;2035441;29;20028;-57
2024/01/10 02:41:38;;;;;;;71.00;27.92;;;;;;;;;;2034781;29;20047;-57
2024/01/10 02:42:39;;;;;;;62.97;27.75;;;;;;;;;;2034923;29;20059;-57
2024/01/10 02:43:40;;;;;;;67.32;26.23;;;;;;;;;;2034945;29;20047;-61
2024/01/10 02:44:41;;;;;;;70.05;28.77;;;;;;;;;;2035096;29;20032;-57
2024/01/10 02:45:41;;;;;;;71.93;27.27;;;;;;;;;;2034863;29;20048;-57
2024/01/10 02:46:42;;;;;;;63.17;26.52;;;;;;;;;;2034697;29;20104;-57
2024/01/10 02:47:43;;;;;;;53.83;22.70;;;;;;;;;;2034947;29;20036;-57
2024/01/10 02:48:43;;;;;;;68.95;27.70;;;;;;;;;;2035079;29;20131;-57
2024/01/10 02:49:44;;;;;;;70.82;29.10;;;;;;;;;;2035199;29;20040;-57
2024/01/10 02:50:45;;;;;;;70.53;29.05;;;;;;;;;;2034902;29;20039;-57
2024/01/10 02:51:46;;;;;;;63.33;24.80;;;;;;;;;;2034931;29;20048;-57
2024/01/10 02:52:46;;;;;;;56.58;22.50;;;;;;;;;;2034980;29;20112;-57
2024/01/10 02:53:47;;;;;;;67.80;27.58;;;;;;;;;;2034757;29;20043;-56
2024/01/10 02:54:48;;;;;;;64.22;25.33;;;;;;;;;;2035024;29;20090;-56
2024/01/10 02:55:49;;;;;;;67.47;27.52;;;;;;;;;;2035102;29;20124;-57
2024/01/10 02:56:50;;;;;;;70.22;28.45;;;;;;;;;;2026645;29;20386;-57
2024/01/10 02:57:51;;;;;;;69.30;28.48;;;;;;;;;;2026554;29;20076;-57
2024/01/10 02:58:52;;;;;;;70.28;29.50;;;;;;;;;;2034941;29;20028;-57
2024/01/10 02:59:52;;;;;;;72.43;28.35;;;;;;;;;;2034677;29;20078;-57
2024/01/10 03:00:53;;;;;;;69.85;29.38;;;;;;;;;;2034777;29;20124;-57
2024/01/10 03:01:54;;;;;;;69.55;30.00;;;;;;;;;;2035142;29;20055;-64
2024/01/10 03:02:55;;;;;;;64.03;28.70;;;;;;;;;;2034911;29;20036;-57
2024/01/10 03:03:55;;;;;;;74.18;27.45;;;;;;;;;;2026757;29;20113;-57
2024/01/10 03:04:56;;;;;;;65.35;27.67;;;;;;;;;;2026630;29;20044;-57
2024/01/10 03:05:57;;;;;;;70.45;28.00;;;;;;;;;;2034764;29;20052;-57
2024/01/10 03:06:57;;;;;;;67.35;27.50;;;;;;;;;;2033999;29;20401;-57
2024/01/10 03:07:58;;;;;;;67.22;27.10;;;;;;;;;;2034924;29;20040;-57
2024/01/10 03:08:59;;;;;;;69.65;27.42;;;;;;;;;;2034947;29;20095;-57
2024/01/10 03:10:00;;;;;;;71.32;28.13;;;;;;;;;;2035069;29;20044;-57
2024/01/10 03:11:00;;;;;;;69.22;27.20;;;;;;;;;;2034846;29;20043;-57
2024/01/10 03:12:01;;;;;;;65.90;28.35;;;;;;;;;;2034778;29;20052;-57
2024/01/10 03:13:02;;;;;;;70.13;28.85;;;;;;;;;;2034871;29;20087;-57
2024/01/10 03:14:04;;;;;;;65.70;28.85;;;;;;;;;;2034902;29;20047;-57
2024/01/10 03:15:06;;;;;;;71.43;28.50;;;;;;;;;;2035035;29;20040;-57
2024/01/10 03:16:06;;;;;;;64.63;26.52;;;;;;;;;;2034710;29;20036;-57
2024/01/10 03:17:07;;;;;;;64.75;26.73;;;;;;;;;;2034907;29;20068;-57
2024/01/10 03:18:08;;;;;;;65.88;28.23;;;;;;;;;;2034967;29;20063;-57
2024/01/10 03:19:08;;;;;;;66.35;27.52;;;;;;;;;;2034801;29;20036;-56
2024/01/10 03:20:09;;;;;;;59.28;25.88;;;;;;;;;;2034970;29;20067;-61
2024/01/10 03:21:10;;;;;;;67.70;28.02;;;;;;;;;;2034789;29;20040;-57
2024/01/10 03:22:11;;;;;;;67.18;29.27;;;;;;;;;;2034687;29;20035;-57
2024/01/10 03:23:12;;;;;;;69.95;28.63;;;;;;;;;;2035010;29;20049;-57
2024/01/10 03:24:13;;;;;;;62.60;26.55;;;;;;;;;;2034396;29;20400;-57
2024/01/10 03:25:13;;;;;;;67.55;26.02;;;;;;;;;;2034736;29;20461;-57
2024/01/10 03:26:14;;;;;;;59.17;25.70;;;;;;;;;;2035096;29;20036;-57
2024/01/10 03:27:15;;;;;;;63.42;27.85;;;;;;;;;;2034703;29;20396;-57
2024/01/10 03:28:17;;;;;;;66.07;27.00;;;;;;;;;;2025726;29;20438;-57
2024/01/10 03:29:18;;;;;;;66.38;28.73;;;;;;;;;;2025633;29;20097;-57
2024/01/10 03:30:19;;;;;;;62.85;28.17;;;;;;;;;;2034671;29;20072;-57
2024/01/10 03:31:20;;;;;;;69.85;28.13;;;;;;;;;;2034776;29;20457;-57
2024/01/10 03:32:21;;;;;;;67.10;28.15;;;;;;;;;;2026471;29;20075;-57
2024/01/10 03:33:21;;;;;;;64.35;27.33;;;;;;;;;;2026423;29;20496;-57
2024/01/10 03:34:22;;;;;;;63.30;27.52;;;;;;;;;;2034542;29;20043;-57
2024/01/10 03:35:23;;;;;;;70.50;29.48;;;;;;;;;;2034386;29;20028;-56
2024/01/10 03:36:24;;;;;;;68.63;25.25;;;;;;;;;;2034110;29;20039;-57
2024/01/10 03:37:25;;;;;;;62.38;26.15;;;;;;;;;;2034515;29;20039;-57
2024/01/10 03:38:26;;;;;;;64.18;24.08;;;;;;;;;;2034744;29;20035;-57
2024/01/10 03:39:26;;;;;;;67.95;29.13;;;;;;;;;;2034639;29;20035;-57
2024/01/10 03:40:27;;;;;;;62.47;26.23;;;;;;;;;;2034797;29;20032;-57
2024/01/10 03:41:28;;;;;;;62.72;26.90;;;;;;;;;;2034819;29;20067;-57
2024/01/10 03:42:28;;;;;;;61.75;24.92;;;;;;;;;;2034742;29;20043;-57
2024/01/10 03:43:29;;;;;;;64.75;24.90;;;;;;;;;;2034620;29;20033;-57
2024/01/10 03:44:30;;;;;;;59.95;26.25;;;;;;;;;;2034703;29;20385;-57
2024/01/10 03:45:31;;;;;;;69.82;30.05;;;;;;;;;;2034613;29;20489;-57
2024/01/10 03:46:31;;;;;;;64.60;26.67;;;;;;;;;;2034968;29;20487;-57
2024/01/10 03:47:32;;;;;;;66.72;26.83;;;;;;;;;;2034620;29;20044;-57
2024/01/10 03:48:33;;;;;;;69.55;27.63;;;;;;;;;;2034474;29;20043;-57
2024/01/10 03:49:33;;;;;;;65.07;28.15;;;;;;;;;;2034517;29;20076;-57
2024/01/10 03:50:34;;;;;;;70.22;29.13;;;;;;;;;;2034544;29;20036;-57
2024/01/10 03:51:35;;;;;;;64.03;28.98;;;;;;;;;;2033965;29;20078;-57
2024/01/10 03:52:35;;;;;;;65.45;28.55;;;;;;;;;;2034494;29;20044;-57
2024/01/10 03:53:36;;;;;;;65.78;27.83;;;;;;;;;;2034597;29;20064;-57
2024/01/10 03:54:38;;;;;;;67.15;30.02;;;;;;;;;;2033946;29;20404;-57
2024/01/10 03:55:39;;;;;;;65.18;28.65;;;;;;;;;;2025828;29;20048;-57
2024/01/10 03:56:40;;;;;;;64.45;29.17;;;;;;;;;;2025883;29;20055;-57
2024/01/10 03:57:41;;;;;;;64.22;27.70;;;;;;;;;;2033897;29;20056;-57
2024/01/10 03:58:42;;;;;;;69.38;30.40;;;;;;;;;;2034105;29;20071;-57
2024/01/10 03:59:43;;;;;;;69.13;29.23;;;;;;;;;;2034505;29;20496;-57
2024/01/10 04:00:43;;;;;;;67.13;27.10;;;;;;;;;;2034503;29;20048;-57
2024/01/10 04:01:44;;;;;;;64.13;27.55;;;;;;;;;;2034692;29;20074;-57
2024/01/10 04:02:45;;;;;;;67.53;28.35;;;;;;;;;;2026129;29;20039;-57
2024/01/10 04:03:46;;;;;;;67.55;28.38;;;;;;;;;;2026122;29;20060;-57
2024/01/10 04:04:46;;;;;;;68.97;28.33;;;;;;;;;;2034413;29;20040;-57
2024/01/10 04:05:47;;;;;;;64.28;28.05;;;;;;;;;;2034573;29;20036;-57
2024/01/10 04:06:48;;;;;;;60.95;28.70;;;;;;;;;;2033842;29;20048;-57
2024/01/10 04:07:49;;;;;;;62.17;27.08;;;;;;;;;;2033528;29;20044;-57
2024/01/10 04:08:49;;;;;;;68.38;26.95;;;;;;;;;;2034599;29;20087;-57
2024/01/10 04:09:50;;;;;;;66.80;28.30;;;;;;;;;;2034532;29;20095;-57
2024/01/10 04:10:51;;;;;;;65.38;27.83;;;;;;;;;;2034321;29;20079;-57
2024/01/10 04:11:51;;;;;;;63.60;27.52;;;;;;;;;;2034233;29;20054;-57
2024/01/10 04:12:52;;;;;;;65.93;27.17;;;;;;;;;;2033858;29;20032;-57
2024/01/10 04:13:53;;;;;;;63.22;26.73;;;;;;;;;;2025400;29;20051;-57
2024/01/10 04:14:54;;;;;;;59.75;22.70;;;;;;;;;;2026049;29;20040;-57
2024/01/10 04:15:54;;;;;;;58.58;25.48;;;;;;;;;;2034406;29;20397;-57
2024/01/10 04:16:55;;;;;;;56.15;25.52;;;;;;;;;;2034539;29;20465;-57
2024/01/10 04:17:56;;;;;;;67.90;26.92;;;;;;;;;;2034728;29;20035;-57
2024/01/10 04:18:56;;;;;;;57.20;23.88;;;;;;;;;;2034312;29;20530;-57
2024/01/10 04:19:57;;;;;;;67.55;27.98;;;;;;;;;;2034369;29;20040;-57
2024/01/10 04:20:58;;;;;;;65.18;26.40;;;;;;;;;;2034661;29;20044;-57
2024/01/10 04:21:59;;;;;;;62.63;25.63;;;;;;;;;;2025913;29;20051;-57
2024/01/10 04:22:59;;;;;;;71.10;25.83;;;;;;;;;;2025938;29;20036;-57
2024/01/10 04:24:00;;;;;;;68.20;28.25;;;;;;;;;;2034334;29;20481;-57
2024/01/10 04:25:01;;;;;;;68.57;29.92;;;;;;;;;;2034360;29;20052;-57
2024/01/10 04:26:03;;;;;;;63.90;26.60;;;;;;;;;;2034243;29;20051;-57
2024/01/10 04:27:03;;;;;;;63.10;25.35;;;;;;;;;;2034371;29;20044;-57
2024/01/10 04:28:04;;;;;;;72.63;25.45;;;;;;;;;;2034324;29;20048;-57
2024/01/10 04:29:05;;;;;;;63.40;25.50;;;;;;;;;;2034316;29;20051;-57
2024/01/10 04:30:06;;;;;;;61.40;23.58;;;;;;;;;;2034243;29;20032;-57
2024/01/10 04:31:07;;;;;;;67.35;25.45;;;;;;;;;;2034375;29;20440;-57
2024/01/10 04:32:08;;;;;;;58.13;23.42;;;;;;;;;;2034226;29;20043;-57
2024/01/10 04:33:08;;;;;;;65.53;27.52;;;;;;;;;;2034335;29;20400;-57
2024/01/10 04:34:10;;;;;;;65.38;27.10;;;;;;;;;;2033975;29;20512;-57
2024/01/10 04:35:11;;;;;;;62.35;24.13;;;;;;;;;;2034165;29;20436;-57
2024/01/10 04:36:12;;;;;;;69.80;28.65;;;;;;;;;;2034387;29;20039;-57
2024/01/10 04:37:13;;;;;;;73.38;28.17;;;;;;;;;;2034200;29;20088;-57
2024/01/10 04:38:14;;;;;;;62.85;25.42;;;;;;;;;;2034137;29;20066;-57
2024/01/10 04:39:15;;;;;;;62.25;25.88;;;;;;;;;;2034263;29;20464;-56
2024/01/10 04:40:15;;;;;;;69.65;27.27;;;;;;;;;;2034279;29;20388;-56
2024/01/10 04:41:16;;;;;;;70.18;26.50;;;;;;;;;;2034293;29;20027;-56
2024/01/10 04:42:17;;;;;;;67.93;26.35;;;;;;;;;;2034262;29;20043;-57
2024/01/10 04:43:17;;;;;;;64.05;26.42;;;;;;;;;;2025997;29;20037;-57
2024/01/10 04:44:18;;;;;;;63.45;26.67;;;;;;;;;;2026243;29;20067;-57
2024/01/10 04:45:19;;;;;;;64.97;26.73;;;;;;;;;;2034055;29;20040;-57
2024/01/10 04:46:20;;;;;;;65.10;25.92;;;;;;;;;;2034255;29;20048;-57
2024/01/10 04:47:20;;;;;;;63.05;25.60;;;;;;;;;;2034222;29;20040;-57
2024/01/10 04:48:21;;;;;;;64.63;26.45;;;;;;;;;;2034073;29;20131;-56
2024/01/10 04:49:22;;;;;;;69.47;27.67;;;;;;;;;;2034392;29;20461;-57
2024/01/10 04:50:23;;;;;;;69.18;28.35;;;;;;;;;;2034163;29;20036;-57
2024/01/10 04:51:24;;;;;;;66.22;27.02;;;;;;;;;;2034282;29;20058;-57
2024/01/10 04:52:24;;;;;;;72.43;27.13;;;;;;;;;;2034133;29;20401;-57
2024/01/10 04:53:25;;;;;;;66.03;27.52;;;;;;;;;;2034001;29;20483;-57
2024/01/10 04:54:26;;;;;;;63.67;28.15;;;;;;;;;;2034185;29;20032;-57
2024/01/10 04:55:27;;;;;;;67.80;26.63;;;;;;;;;;2034055;29;20055;-57
2024/01/10 04:56:28;;;;;;;68.75;29.58;;;;;;;;;;2034132;29;20032;-57
2024/01/10 04:57:29;;;;;;;72.53;30.10;;;;;;;;;;2034057;29;20124;-57
2024/01/10 04:58:30;;;;;;;66.25;27.92;;;;;;;;;;2033144;29;20047;-58
2024/01/10 04:59:30;;;;;;;71.50;29.65;;;;;;;;;;2034129;29;20043;-57
2024/01/10 05:00:31;;;;;;;65.82;27.42;;;;;;;;;;2034234;29;20032;-57
2024/01/10 05:01:32;;;;;;;67.70;27.13;;;;;;;;;;2034037;29;20495;-58
2024/01/10 05:02:33;;;;;;;63.30;26.45;;;;;;;;;;2034032;29;20491;-57
2024/01/10 05:03:33;;;;;;;69.60;28.33;;;;;;;;;;2034103;29;20024;-58
2024/01/10 05:04:34;;;;;;;76.18;29.95;;;;;;;;;;2034205;29;20219;-60
2024/01/10 05:05:35;;;;;;;68.90;27.98;;;;;;;;;;2033965;29;20032;-57
2024/01/10 05:06:36;;;;;;;69.85;27.30;;;;;;;;;;2033104;29;20039;-57
2024/01/10 05:07:36;;;;;;;75.20;27.50;;;;;;;;;;2034041;29;20032;-57
2024/01/10 05:08:37;;;;;;;69.10;25.73;;;;;;;;;;2034019;29;20032;-57
2024/01/10 05:09:38;;;;;;;70.78;30.77;;;;;;;;;;2034110;29;20028;-57
2024/01/10 05:10:39;;;;;;;69.55;26.45;;;;;;;;;;2033891;29;20504;-57
2024/01/10 05:11:39;;;;;;;71.80;29.05;;;;;;;;;;2034297;29;20032;-57
2024/01/10 05:12:40;;;;;;;70.22;28.52;;;;;;;;;;2034096;29;20044;-57
2024/01/10 05:13:41;;;;;;;70.85;28.58;;;;;;;;;;2034203;29;20032;-57
2024/01/10 05:14:42;;;;;;;71.45;28.52;;;;;;;;;;2033446;29;20058;-57
2024/01/10 05:15:43;;;;;;;65.38;26.65;;;;;;;;;;2033104;29;20087;-56
2024/01/10 05:16:44;;;;;;;69.45;27.23;;;;;;;;;;2034187;29;20028;-57
2024/01/10 05:17:44;;;;;;;71.80;28.50;;;;;;;;;;2033938;29;20048;-58
2024/01/10 05:18:46;;;;;;;72.35;28.60;;;;;;;;;;2034098;29;20040;-58
2024/01/10 05:19:47;;;;;;;75.38;28.58;;;;;;;;;;2034338;29;20044;-58
2024/01/10 05:20:47;;;;;;;79.05;29.98;;;;;;;;;;2033636;29;20051;-58
2024/01/10 05:21:48;;;;;;;68.53;24.17;;;;;;;;;;2034372;29;20043;-63
2024/01/10 05:22:49;;;;;;;69.20;25.08;;;;;;;;;;2034514;29;20059;-57
2024/01/10 05:23:50;;;;;;;70.20;26.75;;;;;;;;;;2034144;29;20058;-58
2024/01/10 05:24:50;;;;;;;70.68;25.92;;;;;;;;;;2035332;29;20091;-57
2024/01/10 05:25:51;;;;;;;69.97;26.42;;;;;;;;;;2035801;29;20040;-62
2024/01/10 05:26:52;;;;;;;71.90;29.75;;;;;;;;;;2036002;29;20044;-58
2024/01/10 05:27:53;;;;;;;72.07;28.90;;;;;;;;;;2035563;29;20055;-57
2024/01/10 05:28:54;;;;;;;71.03;28.17;;;;;;;;;;2035787;29;20032;-61
2024/01/10 05:29:54;;;;;;;69.68;26.80;;;;;;;;;;2035571;29;20393;-57
2024/01/10 05:30:55;;;;;;;74.65;27.35;;;;;;;;;;2035238;29;20473;-60
2024/01/10 05:31:56;;;;;;;69.72;28.45;;;;;;;;;;2035551;29;20055;-60
2024/01/10 05:32:56;;;;;;;70.03;29.23;;;;;;;;;;2035058;29;20075;-58
2024/01/10 05:33:57;;;;;;;86.85;30.33;;;;;;;;;;2035787;29;20116;-66
2024/01/10 05:34:58;;;;;;;79.53;29.40;;;;;;;;;;2033815;29;20070;-57
2024/01/10 05:35:59;;;;;;;67.65;26.98;;;;;;;;;;2033923;29;20055;-57
2024/01/10 05:36:59;;;;;;;71.75;28.38;;;;;;;;;;2033452;29;20052;-57
2024/01/10 05:38:00;;;;;;;71.13;28.05;;;;;;;;;;2025746;29;20502;-57
2024/01/10 05:39:02;;;;;;;67.03;26.90;;;;;;;;;;2026106;29;20048;-56
2024/01/10 05:40:04;;;;;;;72.43;28.58;;;;;;;;;;2033914;29;20040;-57
2024/01/10 05:41:05;;;;;;;73.55;29.80;;;;;;;;;;2033853;29;20047;-57
2024/01/10 05:42:06;;;;;;;80.53;31.75;;;;;;;;;;2033868;29;20032;-58
2024/01/10 05:43:07;;;;;;;77.35;31.17;;;;;;;;;;2033551;29;20386;-58
2024/01/10 05:44:07;;;;;;;74.93;28.00;;;;;;;;;;2025611;29;20445;-57
2024/01/10 05:45:08;;;;;;;74.32;27.80;;;;;;;;;;2025704;29;20056;-57
2024/01/10 05:46:09;;;;;;;73.60;26.73;;;;;;;;;;2033796;29;20044;-57
2024/01/10 05:47:10;;;;;;;71.20;27.60;;;;;;;;;;2033764;29;20049;-57
2024/01/10 05:48:11;;;;;;;74.10;28.10;;;;;;;;;;2034039;29;20063;-57
2024/01/10 05:49:12;;;;;;;77.53;30.52;;;;;;;;;;2033922;29;20048;-57
2024/01/10 05:50:12;;;;;;;80.00;30.30;;;;;;;;;;2033871;29;20044;-57
2024/01/10 05:51:13;;;;;;;75.30;29.05;;;;;;;;;;2033942;29;20064;-57
2024/01/10 05:52:14;;;;;;;72.28;29.92;;;;;;;;;;2033744;29;20051;-57
2024/01/10 05:53:16;;;;;;;75.35;28.80;;;;;;;;;;2033453;29;20502;-57